createdAt,value
2019-03-12T00:00:40.309Z,101418.00
2019-03-12T00:03:09.986Z,101415.00
2019-03-12T00:05:39.408Z,101422.00
2019-03-12T00:08:08.845Z,101432.00
2019-03-12T00:10:38.235Z,101432.00
2019-03-12T00:13:07.575Z,101443.00
2019-03-12T00:15:36.968Z,101440.00
2019-03-12T00:18:06.351Z,101444.00
2019-03-12T00:20:35.689Z,101441.00
2019-03-12T00:23:05.058Z,101451.00
2019-03-12T00:25:34.506Z,101453.00
2019-03-12T00:28:03.894Z,101459.00
2019-03-12T00:30:33.662Z,101452.00
2019-03-12T00:33:03.072Z,101444.00
2019-03-12T00:35:32.439Z,101461.00
2019-03-12T00:38:01.803Z,101451.00
2019-03-12T00:40:31.177Z,101454.00
2019-03-12T00:43:00.551Z,101455.00
2019-03-12T00:45:29.914Z,101449.00
2019-03-12T00:47:59.785Z,101450.00
2019-03-12T00:50:29.155Z,101448.00
2019-03-12T00:52:58.516Z,101444.00
2019-03-12T00:55:27.897Z,101460.00
2019-03-12T00:57:57.329Z,101465.00
2019-03-12T01:00:26.672Z,101471.00
2019-03-12T01:02:56.051Z,101475.00
2019-03-12T01:05:25.422Z,101474.00
2019-03-12T01:07:54.801Z,101479.00
2019-03-12T01:10:24.617Z,101493.00
2019-03-12T01:12:53.984Z,101501.00
2019-03-12T01:15:23.347Z,101511.00
2019-03-12T01:17:52.727Z,101514.00
2019-03-12T01:20:22.089Z,101510.00
2019-03-12T01:22:51.445Z,101511.00
2019-03-12T01:25:23.714Z,101511.00
2019-03-12T01:27:53.084Z,101518.00
2019-03-12T01:30:22.449Z,101510.00
2019-03-12T01:32:53.138Z,101513.00
2019-03-12T01:35:22.509Z,101533.00
2019-03-12T01:37:51.878Z,101524.00
2019-03-12T01:40:21.269Z,101527.00
2019-03-12T01:42:52.577Z,101514.00
2019-03-12T01:45:21.729Z,101517.00
2019-03-12T01:47:51.227Z,101539.00
2019-03-12T01:50:20.579Z,101552.00
2019-03-12T01:52:49.941Z,101546.00
2019-03-12T01:55:20.027Z,101541.00
2019-03-12T01:57:49.376Z,101540.00
2019-03-12T02:00:20.525Z,101553.00
2019-03-12T02:02:49.914Z,101554.00
2019-03-12T02:05:19.357Z,101539.00
2019-03-12T02:07:48.716Z,101548.00
2019-03-12T02:10:18.110Z,101547.00
2019-03-12T02:12:47.490Z,101538.00
2019-03-12T02:15:17.813Z,101543.00
2019-03-12T02:17:47.724Z,101545.00
2019-03-12T02:20:19.408Z,101539.00
2019-03-12T02:22:48.767Z,101542.00
2019-03-12T02:25:19.955Z,101547.00
2019-03-12T02:27:49.314Z,101542.00
2019-03-12T02:30:20.759Z,101552.00
2019-03-12T02:32:50.580Z,101548.00
2019-03-12T02:35:21.610Z,101557.00
2019-03-12T02:37:50.995Z,101558.00
2019-03-12T02:40:20.361Z,101570.00
2019-03-12T02:42:49.745Z,101565.00
2019-03-12T02:45:19.182Z,101576.00
2019-03-12T02:47:48.610Z,101580.00
2019-03-12T02:50:18.023Z,101577.00
2019-03-12T02:52:47.406Z,101568.00
2019-03-12T02:55:17.271Z,101569.00
2019-03-12T02:57:46.652Z,101573.00
2019-03-12T03:00:22.118Z,101565.00
2019-03-12T03:02:52.041Z,101567.00
2019-03-12T03:05:21.409Z,101568.00
2019-03-12T03:07:55.320Z,101570.00
2019-03-12T03:10:25.348Z,101583.00
2019-03-12T03:12:54.718Z,101581.00
2019-03-12T03:15:37.191Z,101583.00
2019-03-12T03:18:06.543Z,101579.00
2019-03-12T03:20:35.916Z,101583.00
2019-03-12T03:23:05.365Z,101592.00
2019-03-12T03:25:34.734Z,101584.00
2019-03-12T03:28:04.153Z,101586.00
2019-03-12T03:30:33.713Z,101596.00
2019-03-12T03:33:03.204Z,101590.00
2019-03-12T03:35:32.567Z,101590.00
2019-03-12T03:38:03.116Z,101585.00
2019-03-12T03:40:32.481Z,101584.00
2019-03-12T03:43:01.847Z,101594.00
2019-03-12T03:45:31.234Z,101589.00
2019-03-12T03:48:00.619Z,101586.00
2019-03-12T03:50:30.066Z,101587.00
2019-03-12T03:52:59.660Z,101584.00
2019-03-12T03:55:29.021Z,101568.00
2019-03-12T03:57:58.404Z,101587.00
2019-03-12T04:00:27.778Z,101579.00
2019-03-12T04:02:57.135Z,101578.00
2019-03-12T04:05:26.507Z,101587.00
2019-03-12T04:07:55.901Z,101588.00
2019-03-12T04:10:25.255Z,101602.00
2019-03-12T04:12:54.631Z,101581.00
2019-03-12T04:15:24.118Z,101587.00
2019-03-12T04:17:53.492Z,101595.00
2019-03-12T04:20:22.866Z,101600.00
2019-03-12T04:22:52.265Z,101597.00
2019-03-12T04:25:21.642Z,101598.00
2019-03-12T04:27:51.017Z,101596.00
2019-03-12T04:30:20.942Z,101600.00
2019-03-12T04:32:50.321Z,101595.00
2019-03-12T04:35:35.779Z,101599.00
2019-03-12T04:38:07.163Z,101612.00
2019-03-12T04:40:36.722Z,101606.00
2019-03-12T04:43:06.095Z,101601.00
2019-03-12T04:45:35.470Z,101612.00
2019-03-12T04:48:04.845Z,101622.00
2019-03-12T04:50:34.263Z,101615.00
2019-03-12T04:53:03.635Z,101608.00
2019-03-12T04:55:33.012Z,101599.00
2019-03-12T04:58:02.754Z,101597.00
2019-03-12T05:00:32.124Z,101602.00
2019-03-12T05:03:01.518Z,101593.00
2019-03-12T05:05:30.892Z,101594.00
2019-03-12T05:08:00.262Z,101587.00
2019-03-12T05:10:29.631Z,101602.00
2019-03-12T05:12:59.021Z,101605.00
2019-03-12T05:15:28.404Z,101601.00
2019-03-12T05:17:57.780Z,101596.00
2019-03-12T05:20:27.744Z,101603.00
2019-03-12T05:22:57.100Z,101605.00
2019-03-12T05:25:26.485Z,101608.00
2019-03-12T05:27:55.860Z,101607.00
2019-03-12T05:30:27.873Z,101603.00
2019-03-12T05:32:57.242Z,101622.00
2019-03-12T05:35:26.636Z,101615.00
2019-03-12T05:37:55.997Z,101618.00
2019-03-12T05:40:26.577Z,101615.00
2019-03-12T05:42:56.303Z,101627.00
2019-03-12T05:45:25.678Z,101620.00
2019-03-12T05:47:55.054Z,101622.00
2019-03-12T05:50:24.438Z,101624.00
2019-03-12T05:53:14.960Z,101626.00
2019-03-12T05:55:44.323Z,101638.00
2019-03-12T05:58:13.683Z,101637.00
2019-03-12T06:00:43.052Z,101646.00
2019-03-12T06:03:12.944Z,101642.00
2019-03-12T06:05:42.318Z,101629.00
2019-03-12T06:08:11.673Z,101646.00
2019-03-12T06:10:41.096Z,101637.00
2019-03-12T06:13:10.505Z,101639.00
2019-03-12T06:15:40.219Z,101630.00
2019-03-12T06:18:09.596Z,101629.00
2019-03-12T06:20:38.980Z,101625.00
2019-03-12T06:23:08.366Z,101622.00
2019-03-12T06:25:38.087Z,101627.00
2019-03-12T06:28:07.453Z,101633.00
2019-03-12T06:30:38.465Z,101623.00
2019-03-12T06:33:12.422Z,101618.00
2019-03-12T06:35:46.331Z,101616.00
2019-03-12T06:38:20.035Z,101618.00
2019-03-12T06:40:54.556Z,101626.00
2019-03-12T06:43:41.648Z,101617.00
2019-03-12T06:46:12.680Z,101630.00
2019-03-12T06:48:52.525Z,101622.00
2019-03-12T06:51:26.023Z,101632.00
2019-03-12T06:53:59.704Z,101629.00
2019-03-12T06:56:30.714Z,101634.00
2019-03-12T06:59:17.071Z,101631.00
2019-03-12T07:02:06.087Z,101640.00
2019-03-12T07:04:39.738Z,101631.00
2019-03-12T07:07:17.219Z,101630.00
2019-03-12T07:09:51.368Z,101630.00
2019-03-12T07:12:22.371Z,101624.00
2019-03-12T07:15:06.063Z,101631.00
2019-03-12T07:17:52.415Z,101630.00
2019-03-12T07:20:23.431Z,101627.00
2019-03-12T07:23:06.614Z,101628.00
2019-03-12T07:25:37.647Z,101624.00
2019-03-12T07:28:11.434Z,101617.00
2019-03-12T07:30:58.387Z,101630.00
2019-03-12T07:33:35.192Z,101631.00
2019-03-12T07:36:06.207Z,101626.00
2019-03-12T07:38:49.442Z,101625.00
2019-03-12T07:41:30.188Z,101636.00
2019-03-12T07:43:53.648Z,101624.00
2019-03-12T07:46:28.980Z,101621.00
2019-03-12T07:49:09.355Z,101614.00
2019-03-12T07:51:43.266Z,101614.00
2019-03-12T07:54:30.750Z,101616.00
2019-03-12T07:57:04.647Z,101622.00
2019-03-12T07:59:47.582Z,101614.00
2019-03-12T08:02:25.063Z,101622.00
2019-03-12T08:04:56.064Z,101609.00
2019-03-12T08:07:42.905Z,101615.00
2019-03-12T08:10:25.948Z,101614.00
2019-03-12T08:13:05.935Z,101606.00
2019-03-12T08:15:36.950Z,101617.00
2019-03-12T08:18:10.951Z,101606.00
2019-03-12T08:20:44.815Z,101607.00
2019-03-12T08:23:27.737Z,101616.00
2019-03-12T08:26:14.988Z,101614.00
2019-03-12T08:29:02.264Z,101609.00
2019-03-12T08:31:48.762Z,101603.00
2019-03-12T08:34:25.446Z,101592.00
2019-03-12T08:36:59.579Z,101587.00
2019-03-12T08:39:33.771Z,101587.00
2019-03-12T08:42:04.773Z,101578.00
2019-03-12T08:44:53.793Z,101592.00
2019-03-12T08:47:25.972Z,101579.00
2019-03-12T08:50:13.136Z,101584.00
2019-03-12T08:52:56.450Z,101585.00
2019-03-12T08:55:43.728Z,101577.00
2019-03-12T08:58:33.028Z,101582.00
2019-03-12T09:01:06.574Z,101575.00
2019-03-12T09:03:39.970Z,101580.00
2019-03-12T09:06:27.040Z,101577.00
2019-03-12T09:08:58.080Z,101568.00
2019-03-12T09:11:44.550Z,101561.00
2019-03-12T09:14:24.039Z,101570.00
2019-03-12T09:17:04.288Z,101566.00
2019-03-12T09:19:38.344Z,101558.00
2019-03-12T09:22:09.372Z,101554.00
2019-03-12T09:24:52.381Z,101557.00
2019-03-12T09:27:26.364Z,101545.00
2019-03-12T09:29:57.671Z,101535.00
2019-03-12T09:32:29.031Z,101541.00
2019-03-12T09:35:18.232Z,101525.00
2019-03-12T09:37:49.280Z,101529.00
2019-03-12T09:40:29.693Z,101529.00
2019-03-12T09:43:12.666Z,101518.00
2019-03-12T09:45:46.398Z,101512.00
2019-03-12T09:48:35.074Z,101506.00
2019-03-12T09:51:06.090Z,101510.00
2019-03-12T09:53:37.138Z,101511.00
2019-03-12T09:56:24.528Z,101505.00
2019-03-12T09:59:07.492Z,101510.00
2019-03-12T10:01:50.663Z,101500.00
2019-03-12T10:04:31.043Z,101494.00
2019-03-12T10:07:14.335Z,101493.00
2019-03-12T10:09:51.261Z,101493.00
2019-03-12T10:12:22.280Z,101484.00
2019-03-12T10:14:56.261Z,101482.00
2019-03-12T10:17:29.799Z,101479.00
2019-03-12T10:20:12.868Z,101461.00
2019-03-12T10:22:43.903Z,101462.00
2019-03-12T10:25:17.815Z,101454.00
2019-03-12T10:28:04.494Z,101452.00
2019-03-12T10:30:53.486Z,101444.00
2019-03-12T10:33:40.823Z,101444.00
2019-03-12T10:36:18.013Z,101443.00
2019-03-12T10:39:33.354Z,101436.00
2019-03-12T10:42:04.348Z,101432.00
2019-03-12T10:44:35.360Z,101438.00
2019-03-12T10:47:09.894Z,101435.00
2019-03-12T10:49:40.413Z,101436.00
2019-03-12T10:52:09.803Z,101432.00
2019-03-12T10:54:39.183Z,101425.00
2019-03-12T10:57:08.547Z,101428.00
2019-03-12T10:59:37.914Z,101414.00
2019-03-12T11:02:07.676Z,101419.00
2019-03-12T11:04:37.296Z,101414.00
2019-03-12T11:07:15.855Z,101401.00
2019-03-12T11:09:38.125Z,101396.00
2019-03-12T11:12:07.550Z,101383.00
2019-03-12T11:14:36.931Z,101387.00
2019-03-12T11:17:06.307Z,101375.00
2019-03-12T11:19:35.680Z,101374.00
2019-03-12T11:22:05.042Z,101368.00
2019-03-12T11:24:34.436Z,101362.00
2019-03-12T11:27:03.800Z,101356.00
2019-03-12T11:29:33.172Z,101358.00
2019-03-12T11:32:02.938Z,101358.00
2019-03-12T11:34:32.305Z,101355.00
2019-03-12T11:37:01.679Z,101350.00
2019-03-12T11:39:31.063Z,101343.00
2019-03-12T11:42:00.790Z,101336.00
2019-03-12T11:44:30.143Z,101333.00
2019-03-12T11:46:59.526Z,101334.00
2019-03-12T11:49:29.223Z,101324.00
2019-03-12T11:51:59.668Z,101319.00
2019-03-12T11:54:29.522Z,101316.00
2019-03-12T11:56:58.876Z,101307.00
2019-03-12T11:59:28.242Z,101307.00
2019-03-12T12:01:57.638Z,101309.00
2019-03-12T12:04:27.011Z,101301.00
2019-03-12T12:06:56.436Z,101296.00
2019-03-12T12:09:25.809Z,101298.00
2019-03-12T12:11:55.163Z,101285.00
2019-03-12T12:14:24.552Z,101283.00
2019-03-12T12:16:54.041Z,101270.00
2019-03-12T12:19:23.408Z,101250.00
2019-03-12T12:21:52.780Z,101260.00
2019-03-12T12:24:22.168Z,101250.00
2019-03-12T12:26:51.541Z,101245.00
2019-03-12T12:29:20.941Z,101248.00
2019-03-12T12:31:50.311Z,101230.00
2019-03-12T12:34:19.683Z,101229.00
2019-03-12T12:36:49.047Z,101219.00
2019-03-12T12:39:18.755Z,101215.00
2019-03-12T12:41:48.436Z,101215.00
2019-03-12T12:44:17.813Z,101209.00
2019-03-12T12:46:47.194Z,101205.00
2019-03-12T12:49:16.568Z,101200.00
2019-03-12T12:51:45.941Z,101186.00
2019-03-12T12:54:17.522Z,101181.00
2019-03-12T12:56:46.885Z,101175.00
2019-03-12T12:59:16.258Z,101183.00
2019-03-12T13:01:46.181Z,101171.00
2019-03-12T13:04:15.551Z,101171.00
2019-03-12T13:06:44.923Z,101159.00
2019-03-12T13:09:14.363Z,101166.00
2019-03-12T13:11:43.736Z,101173.00
2019-03-12T13:14:13.109Z,101150.00
2019-03-12T13:16:42.497Z,101139.00
2019-03-12T13:19:11.873Z,101150.00
2019-03-12T13:21:41.240Z,101143.00
2019-03-12T13:24:10.976Z,101141.00
2019-03-12T13:26:40.349Z,101137.00
2019-03-12T13:29:11.773Z,101140.00
2019-03-12T13:31:41.159Z,101131.00
2019-03-12T13:34:10.524Z,101134.00
2019-03-12T13:36:39.895Z,101127.00
2019-03-12T13:39:09.273Z,101117.00
2019-03-12T13:41:38.647Z,101112.00
2019-03-12T13:44:08.022Z,101094.00
2019-03-12T13:46:38.008Z,101092.00
2019-03-12T13:49:07.648Z,101090.00
2019-03-12T13:51:37.183Z,101091.00
2019-03-12T13:54:09.613Z,101090.00
2019-03-12T13:56:38.804Z,101079.00
2019-03-12T13:59:08.179Z,101078.00
2019-03-12T14:01:37.563Z,101068.00
2019-03-12T14:04:10.727Z,101060.00
2019-03-12T14:06:38.069Z,101055.00
2019-03-12T14:09:07.863Z,101058.00
2019-03-12T14:11:37.233Z,101053.00
2019-03-12T14:14:06.606Z,101057.00
2019-03-12T14:16:35.998Z,101049.00
2019-03-12T14:19:05.368Z,101043.00
2019-03-12T14:21:40.843Z,101043.00
2019-03-12T14:24:10.263Z,101038.00
2019-03-12T14:26:39.646Z,101027.00
2019-03-12T14:29:09.110Z,101030.00
2019-03-12T14:31:38.497Z,101029.00
2019-03-12T14:34:07.871Z,101018.00
2019-03-12T14:36:37.240Z,101008.00
2019-03-12T14:39:07.923Z,101004.00
2019-03-12T14:41:37.352Z,100995.00
2019-03-12T14:44:06.787Z,100993.00
2019-03-12T14:46:36.363Z,100990.00
2019-03-12T14:49:05.721Z,100971.00
2019-03-12T14:51:51.508Z,100979.00
2019-03-12T14:54:20.891Z,100959.00
2019-03-12T14:56:50.259Z,100965.00
2019-03-12T14:59:20.845Z,100958.00
2019-03-12T15:01:50.239Z,100949.00
2019-03-12T15:04:19.596Z,100945.00
2019-03-12T15:06:49.348Z,100943.00
2019-03-12T15:09:18.730Z,100941.00
2019-03-12T15:11:48.101Z,100941.00
2019-03-12T15:14:17.490Z,100925.00
2019-03-12T15:16:46.902Z,100929.00
2019-03-12T15:19:16.228Z,100921.00
2019-03-12T15:21:45.614Z,100921.00
2019-03-12T15:24:14.979Z,100904.00
2019-03-12T15:26:44.353Z,100892.00
2019-03-12T15:29:14.100Z,100893.00
2019-03-12T15:31:43.481Z,100891.00
2019-03-12T15:34:12.859Z,100886.00
2019-03-12T15:36:45.201Z,100867.00
2019-03-12T15:39:13.347Z,100880.00
2019-03-12T15:41:42.738Z,100863.00
2019-03-12T15:44:12.428Z,100858.00
2019-03-12T15:46:41.806Z,100847.00
2019-03-12T15:49:11.171Z,100850.00
2019-03-12T15:51:41.147Z,100843.00
2019-03-12T15:54:10.507Z,100830.00
2019-03-12T15:56:39.881Z,100826.00
2019-03-12T15:59:09.263Z,100819.00
2019-03-12T16:01:40.177Z,100812.00
2019-03-12T16:04:09.572Z,100811.00
2019-03-12T16:06:38.952Z,100807.00
2019-03-12T16:09:09.134Z,100802.00
2019-03-12T16:11:38.499Z,100803.00
2019-03-12T16:14:08.478Z,100793.00
2019-03-12T16:16:37.848Z,100775.00
2019-03-12T16:19:07.225Z,100779.00
2019-03-12T16:21:36.615Z,100766.00
2019-03-12T16:24:05.997Z,100757.00
2019-03-12T16:26:35.394Z,100751.00
2019-03-12T16:29:04.767Z,100749.00
2019-03-12T16:31:34.161Z,100727.00
2019-03-12T16:34:03.513Z,100708.00
2019-03-12T16:36:33.030Z,100691.00
2019-03-12T16:39:02.399Z,100683.00
2019-03-12T16:41:31.774Z,100667.00
2019-03-12T16:44:01.159Z,100652.00
2019-03-12T16:46:30.533Z,100656.00
2019-03-12T16:49:00.316Z,100659.00
2019-03-12T16:51:30.009Z,100640.00
2019-03-12T16:53:59.393Z,100645.00
2019-03-12T16:56:28.759Z,100644.00
2019-03-12T16:58:58.683Z,100628.00
2019-03-12T17:01:28.056Z,100626.00
2019-03-12T17:03:58.582Z,100623.00
2019-03-12T17:06:27.971Z,100625.00
2019-03-12T17:08:57.330Z,100616.00
2019-03-12T17:11:26.698Z,100619.00
2019-03-12T17:13:56.090Z,100611.00
2019-03-12T17:16:25.456Z,100611.00
2019-03-12T17:18:54.836Z,100622.00
2019-03-12T17:21:24.622Z,100611.00
2019-03-12T17:23:53.984Z,100608.00
2019-03-12T17:26:23.365Z,100599.00
2019-03-12T17:28:52.748Z,100596.00
2019-03-12T17:31:22.146Z,100594.00
2019-03-12T17:33:51.517Z,100581.00
2019-03-12T17:36:20.903Z,100575.00
2019-03-12T17:38:50.274Z,100575.00
2019-03-12T17:41:19.645Z,100569.00
2019-03-12T17:43:49.444Z,100565.00
2019-03-12T17:46:18.831Z,100559.00
2019-03-12T17:48:48.576Z,100548.00
2019-03-12T17:51:17.952Z,100551.00
2019-03-12T17:53:47.314Z,100542.00
2019-03-12T17:56:16.685Z,100544.00
2019-03-12T17:58:46.125Z,100535.00
2019-03-12T18:01:15.501Z,100528.00
2019-03-12T18:03:44.869Z,100516.00
2019-03-12T18:06:15.825Z,100512.00
2019-03-12T18:08:45.198Z,100506.00
2019-03-12T18:11:14.563Z,100498.00
2019-03-12T18:13:43.950Z,100489.00
2019-03-12T18:16:13.601Z,100480.00
2019-03-12T18:18:42.970Z,100482.00
2019-03-12T18:21:12.351Z,100469.00
2019-03-12T18:23:41.728Z,100476.00
2019-03-12T18:26:11.177Z,100461.00
2019-03-12T18:28:41.171Z,100456.00
2019-03-12T18:31:10.545Z,100449.00
2019-03-12T18:33:40.237Z,100434.00
2019-03-12T18:36:09.642Z,100434.00
2019-03-12T18:38:39.013Z,100431.00
2019-03-12T18:41:08.392Z,100415.00
2019-03-12T18:43:37.826Z,100414.00
2019-03-12T18:46:07.270Z,100408.00
2019-03-12T18:48:36.647Z,100408.00
2019-03-12T18:51:06.400Z,100405.00
2019-03-12T18:53:36.066Z,100393.00
2019-03-12T18:56:05.575Z,100394.00
2019-03-12T18:58:34.965Z,100383.00
2019-03-12T19:01:04.937Z,100385.00
2019-03-12T19:03:34.317Z,100367.00
2019-03-12T19:06:03.703Z,100373.00
2019-03-12T19:08:34.063Z,100370.00
2019-03-12T19:11:03.497Z,100364.00
2019-03-12T19:13:33.410Z,100354.00
2019-03-12T19:16:02.740Z,100350.00
2019-03-12T19:18:32.156Z,100335.00
2019-03-12T19:21:01.558Z,100334.00
2019-03-12T19:23:30.940Z,100337.00
2019-03-12T19:26:00.331Z,100311.00
2019-03-12T19:28:29.720Z,100313.00
2019-03-12T19:31:00.735Z,100297.00
2019-03-12T19:33:30.472Z,100296.00
2019-03-12T19:36:00.437Z,100287.00
2019-03-12T19:38:29.802Z,100276.00
2019-03-12T19:40:59.719Z,100261.00
2019-03-12T19:43:29.105Z,100240.00
2019-03-12T19:45:58.472Z,100239.00
2019-03-12T19:48:27.851Z,100230.00
2019-03-12T19:50:57.231Z,100223.00
2019-03-12T19:53:26.601Z,100208.00
2019-03-12T19:56:05.864Z,100205.00
2019-03-12T19:58:35.235Z,100198.00
2019-03-12T20:01:04.893Z,100193.00
2019-03-12T20:03:34.262Z,100177.00
2019-03-12T20:06:03.942Z,100179.00
2019-03-12T20:08:33.312Z,100169.00
2019-03-12T20:11:40.603Z,100163.00
2019-03-12T20:14:49.422Z,100149.00
2019-03-12T20:17:55.240Z,100144.00
2019-03-12T20:20:54.749Z,100135.00
2019-03-12T20:24:00.573Z,100131.00
2019-03-12T20:27:00.867Z,100118.00
2019-03-12T20:30:15.787Z,100117.00
2019-03-12T20:33:10.627Z,100102.00
2019-03-12T20:36:01.741Z,100110.00
2019-03-12T20:39:15.869Z,100106.00
2019-03-12T20:42:26.197Z,100094.00
2019-03-12T20:45:48.533Z,100088.00
2019-03-12T20:48:37.334Z,100076.00
2019-03-12T20:51:51.734Z,100066.00
2019-03-12T20:55:07.076Z,100060.00
2019-03-12T20:58:18.899Z,100049.00
2019-03-12T21:01:27.683Z,100044.00
2019-03-12T21:04:27.052Z,100015.00
2019-03-12T21:07:28.219Z,100016.00
2019-03-12T21:10:39.966Z,100011.00
2019-03-12T21:13:55.770Z,99999.00
2019-03-12T21:16:58.169Z,99986.00
2019-03-12T21:20:14.410Z,99981.00
2019-03-12T21:23:18.198Z,99985.00
2019-03-12T21:26:00.692Z,99976.00
2019-03-12T21:28:46.471Z,99971.00
2019-03-12T21:31:15.884Z,99970.00
2019-03-12T21:33:45.223Z,99949.00
2019-03-12T21:36:14.585Z,99937.00
2019-03-12T21:38:43.982Z,99945.00
2019-03-12T21:41:13.336Z,99931.00
2019-03-12T21:43:42.742Z,99925.00
2019-03-12T21:46:12.432Z,99909.00
2019-03-12T21:48:41.799Z,99898.00
2019-03-12T21:51:11.192Z,99896.00
2019-03-12T21:53:40.561Z,99903.00
2019-03-12T21:56:09.923Z,99897.00
2019-03-12T21:58:39.287Z,99889.00
2019-03-12T22:01:08.664Z,99882.00
2019-03-12T22:03:38.036Z,99884.00
2019-03-12T22:06:07.399Z,99874.00
2019-03-12T22:08:37.332Z,99874.00
2019-03-12T22:11:06.769Z,99869.00
2019-03-12T22:13:36.124Z,99854.00
2019-03-12T22:16:06.549Z,99861.00
2019-03-12T22:18:35.912Z,99856.00
2019-03-12T22:21:05.289Z,99846.00
2019-03-12T22:23:36.297Z,99838.00
2019-03-12T22:26:05.666Z,99851.00
2019-03-12T22:28:35.036Z,99832.00
2019-03-12T22:31:04.776Z,99836.00
2019-03-12T22:33:34.129Z,99812.00
2019-03-12T22:36:03.508Z,99808.00
2019-03-12T22:38:32.886Z,99820.00
2019-03-12T22:41:02.247Z,99831.00
2019-03-12T22:43:31.619Z,99807.00
2019-03-12T22:46:01.333Z,99800.00
2019-03-12T22:48:30.700Z,99799.00
2019-03-12T22:51:00.063Z,99800.00
2019-03-12T22:53:29.793Z,99795.00
2019-03-12T22:55:59.172Z,99797.00
2019-03-12T22:58:28.546Z,99790.00
2019-03-12T23:00:58.080Z,99783.00
2019-03-12T23:03:27.443Z,99764.00
2019-03-12T23:05:56.816Z,99771.00
2019-03-12T23:08:26.193Z,99776.00
2019-03-12T23:10:55.630Z,99785.00
2019-03-12T23:13:24.996Z,99773.00
2019-03-12T23:15:55.048Z,99764.00
2019-03-12T23:18:25.043Z,99764.00
2019-03-12T23:20:54.440Z,99737.00
2019-03-12T23:23:24.136Z,99718.00
2019-03-12T23:25:53.496Z,99697.00
2019-03-12T23:28:22.874Z,99687.00
2019-03-12T23:30:52.267Z,99691.00
2019-03-12T23:33:21.706Z,99691.00
2019-03-12T23:35:51.070Z,99693.00
2019-03-12T23:38:20.780Z,99707.00
2019-03-12T23:40:50.155Z,99706.00
2019-03-12T23:43:19.557Z,99703.00
2019-03-12T23:45:48.933Z,99697.00
2019-03-12T23:48:18.295Z,99689.00
2019-03-12T23:50:47.660Z,99676.00
2019-03-12T23:53:17.038Z,99656.00
2019-03-12T23:55:46.408Z,99648.00
2019-03-12T23:58:15.772Z,99664.00
